Locke Mills, Maine
Current Conditions -  °F | °C
As of 8:52 AM on Wednesday 26 Nov 2014 (Local Time) from KBML Reporting Station
Few Clouds Few Clouds  
Wind Chill: 34°   Ceiling: Unl
Heat Index: 34°   Visibility: 10mi
Dew Point: 21°   Wind: 0mph
Humidity: 59%   Direction: NA
Pressure: 30.21"   Gusts: NA
Location:  44.4°N, 70.7°W
Report Text: KBML 261352Z AUTO 00000KT 10SM FEW120 01/M06 A3021 RMK AO2 SLP243 T00111061
Loading
Personal Weather Stations






























Interactive Weather Map New forecast layout! Learn more

10-Day Weather Forecast

Advertisements
Track Severe Weather on mobile